Time;durP1;ratioP1;P1;durP2;ratioP2;P2;SDS_P1;SDS_P2;PMS_P1;PMS_P2;Temp;Humidity;BMP_temperature;BMP_pressure;BME280_temperature;BME280_humidity;BME280_pressure;Samples;Min_cycle;Max_cycle;Signal;HPM_P1;HPM_P2
2024/01/04 00:00:09;;;;;;;3.43;0.63;;;;;;;10.30;89.02;96608.03;5239951;22;20573;-92
2024/01/04 00:02:15;;;;;;;1.90;0.63;;;;;;;10.30;89.59;96605.44;5211353;22;20624;-91
2024/01/04 00:04:22;;;;;;;3.80;0.63;;;;;;;10.33;90.36;96618.19;5211721;22;20970;-89
2024/01/04 00:06:24;;;;;;;2.13;1.00;;;;;;;10.33;90.03;96626.81;5209873;22;20636;-94
2024/01/04 00:08:31;;;;;;;2.85;0.90;;;;;;;10.32;90.42;96619.94;5209979;22;21011;-94
2024/01/04 00:10:36;;;;;;;1.47;0.70;;;;;;;10.30;89.68;96623.66;5210530;22;20165;-88
2024/01/04 00:12:43;;;;;;;4.40;0.77;;;;;;;10.34;89.61;96614.59;5238319;22;20576;-90
2024/01/04 00:14:48;;;;;;;3.47;0.87;;;;;;;10.33;90.10;96605.16;5185987;22;21193;-94
2024/01/04 00:16:51;;;;;;;1.47;0.53;;;;;;;10.32;90.47;96608.72;5238573;22;20597;-93
2024/01/04 00:18:54;;;;;;;3.10;0.87;;;;;;;10.36;90.50;96605.69;5211344;22;21320;-90
2024/01/04 00:20:56;;;;;;;2.40;0.65;;;;;;;10.28;91.17;96606.53;5213667;22;20660;-93
2024/01/04 00:23:00;;;;;;;3.20;0.60;;;;;;;10.24;90.73;96618.16;5187923;22;20197;-92
2024/01/04 00:25:05;;;;;;;4.10;0.80;;;;;;;10.17;91.61;96620.50;5187957;22;20571;-87
2024/01/04 00:27:08;;;;;;;2.10;0.70;;;;;;;10.27;90.73;96646.56;5189094;22;20587;-91
2024/01/04 00:29:12;;;;;;;2.33;0.67;;;;;;;10.12;92.36;96642.75;5187733;22;21405;-95
2024/01/04 00:31:15;;;;;;;1.20;0.43;;;;;;;10.07;92.04;96621.47;5242577;22;20984;-94
2024/01/04 00:33:19;;;;;;;1.70;0.70;;;;;;;9.93;92.28;96625.31;5187850;22;20951;-91
2024/01/04 00:35:22;;;;;;;2.72;0.73;;;;;;;9.84;92.57;96621.88;5213186;22;20176;-87
2024/01/04 00:37:25;;;;;;;1.50;0.50;;;;;;;9.84;92.88;96613.09;5239754;22;20536;-94
2024/01/04 00:39:29;;;;;;;1.10;0.40;;;;;;;9.69;93.66;96631.84;5187769;22;20493;-90
2024/01/04 00:41:33;;;;;;;1.63;0.60;;;;;;;9.73;93.38;96632.41;5187998;22;20572;-91
2024/01/04 00:43:38;;;;;;;4.68;0.60;;;;;;;9.68;92.60;96624.16;5212848;22;20178;-90
2024/01/04 00:45:41;;;;;;;2.45;0.65;;;;;;;9.68;93.84;96630.22;5212498;22;20608;-93
2024/01/04 00:47:44;;;;;;;1.50;0.40;;;;;;;9.60;94.01;96634.44;5188017;22;20201;-92
2024/01/04 00:49:47;;;;;;;2.15;0.60;;;;;;;9.49;94.17;96622.38;5239799;22;20581;-93
2024/01/04 00:51:50;;;;;;;2.13;0.60;;;;;;;9.41;94.84;96621.38;5238822;22;20182;-93
2024/01/04 00:53:53;;;;;;;2.85;0.70;;;;;;;9.48;95.37;96625.91;5186351;22;20177;-93
2024/01/04 00:55:57;;;;;;;2.25;0.55;;;;;;;9.45;95.07;96625.38;5212514;22;20183;-94
2024/01/04 00:58:02;;;;;;;2.30;0.60;;;;;;;9.43;95.56;96632.50;5213438;22;20266;-93
2024/01/04 01:00:07;;;;;;;1.90;0.57;;;;;;;9.46;95.14;96646.06;5213433;22;20199;-93
2024/01/04 01:02:11;;;;;;;3.23;0.50;;;;;;;9.37;95.82;96640.84;5212867;22;20586;-93
2024/01/04 01:04:14;;;;;;;2.05;0.50;;;;;;;9.35;96.42;96639.31;5212886;22;20574;-94
2024/01/04 01:06:18;;;;;;;1.60;0.50;;;;;;;9.31;96.77;96641.38;5213520;22;20172;-93
2024/01/04 01:08:21;;;;;;;2.47;0.70;;;;;;;9.23;97.23;96640.38;5238993;22;20195;-94
2024/01/04 01:10:26;;;;;;;3.17;0.70;;;;;;;9.22;97.81;96641.34;5237921;22;20235;-93
2024/01/04 01:12:29;;;;;;;1.60;0.50;;;;;;;9.19;97.74;96657.22;5187791;22;20180;-92
2024/01/04 01:14:34;;;;;;;1.70;0.60;;;;;;;9.19;97.48;96652.00;5212757;22;20215;-91
2024/01/04 01:16:37;;;;;;;2.75;1.35;;;;;;;9.17;97.07;96649.53;5241186;22;20171;-94
2024/01/04 01:18:41;;;;;;;1.40;0.55;;;;;;;9.14;97.33;96644.59;5239448;22;20201;-94
2024/01/04 01:20:44;;;;;;;4.00;0.85;;;;;;;9.10;97.27;96647.59;5212567;22;20248;-94
2024/01/04 01:22:48;;;;;;;4.28;0.88;;;;;;;9.12;96.92;96654.28;5238161;22;20199;-94
2024/01/04 01:24:52;;;;;;;2.00;0.50;;;;;;;9.11;96.88;96663.06;5212471;22;20180;-95
2024/01/04 01:26:54;;;;;;;2.65;0.68;;;;;;;9.10;98.21;96677.00;5240534;22;20179;-94
2024/01/04 01:28:58;;;;;;;2.40;0.70;;;;;;;9.05;97.92;96671.38;5214040;22;20196;-91
2024/01/04 01:31:05;;;;;;;5.90;0.65;;;;;;;9.01;98.61;96670.00;5213765;22;20225;-91
2024/01/04 01:33:08;;;;;;;3.10;0.80;;;;;;;8.93;98.34;96669.81;5213329;22;20176;-92
2024/01/04 01:35:11;;;;;;;2.47;0.60;;;;;;;8.97;98.72;96663.38;5187541;22;20231;-94
2024/01/04 01:37:15;;;;;;;1.50;0.50;;;;;;;8.95;97.23;96669.69;5186916;22;20176;-95
2024/01/04 01:39:18;;;;;;;1.73;0.40;;;;;;;8.93;97.36;96664.63;5187819;22;20602;-94
2024/01/04 01:41:22;;;;;;;1.80;0.50;;;;;;;8.94;95.81;96665.44;5212687;22;20498;-83
2024/01/04 01:43:25;;;;;;;1.50;0.50;;;;;;;8.95;96.70;96667.91;5239996;22;20171;-84
2024/01/04 01:45:28;;;;;;;1.45;0.60;;;;;;;8.95;95.94;96665.31;5187686;22;20177;-84
2024/01/04 01:47:32;;;;;;;1.95;0.52;;;;;;;9.00;96.47;96663.13;5213542;22;20176;-82
2024/01/04 01:49:35;;;;;;;1.40;0.50;;;;;;;8.92;96.16;96650.94;5188428;22;20260;-83
2024/01/04 01:51:39;;;;;;;3.83;1.02;;;;;;;8.87;97.05;96663.47;5213217;22;20196;-84
2024/01/04 01:53:42;;;;;;;2.35;0.82;;;;;;;8.87;97.66;96672.13;5187526;22;20445;-84
2024/01/04 01:55:45;;;;;;;1.30;0.43;;;;;;;8.88;97.02;96659.94;5187520;22;20173;-83
2024/01/04 01:57:49;;;;;;;1.55;0.55;;;;;;;8.87;96.90;96673.88;5238235;22;20173;-83
2024/01/04 01:59:52;;;;;;;2.47;0.70;;;;;;;8.87;97.08;96679.91;5212432;22;20185;-84
2024/01/04 02:01:56;;;;;;;2.28;0.55;;;;;;;8.90;97.65;96673.63;5213114;22;20176;-83
2024/01/04 02:04:03;;;;;;;2.05;0.60;;;;;;;8.77;96.67;96686.84;5213532;22;20757;-83
2024/01/04 02:06:06;;;;;;;1.58;0.52;;;;;;;8.80;97.20;96689.19;5213520;22;20172;-84
2024/01/04 02:08:10;;;;;;;4.07;0.80;;;;;;;8.80;98.15;96677.97;5213713;22;20251;-83
2024/01/04 02:10:13;;;;;;;2.13;0.52;;;;;;;8.83;98.02;96693.31;5212980;22;20176;-83
2024/01/04 02:12:17;;;;;;;1.75;0.60;;;;;;;8.83;98.10;96690.69;5239524;22;20178;-84
2024/01/04 02:14:20;;;;;;;3.08;0.60;;;;;;;8.79;98.23;96692.72;5212078;22;20225;-83
2024/01/04 02:16:24;;;;;;;2.80;0.57;;;;;;;8.80;97.90;96701.34;5239454;22;20220;-84
2024/01/04 02:18:27;;;;;;;2.05;0.55;;;;;;;8.77;98.29;96693.81;5213246;22;20178;-83
2024/01/04 02:20:31;;;;;;;1.50;0.45;;;;;;;8.74;99.34;96702.69;5213542;22;20266;-83
2024/01/04 02:22:35;;;;;;;2.53;0.50;;;;;;;8.76;99.25;96699.94;5186972;22;20192;-84
2024/01/04 02:24:40;;;;;;;1.88;0.47;;;;;;;8.77;99.14;96704.22;5213370;22;20587;-84
2024/01/04 02:26:43;;;;;;;1.70;0.50;;;;;;;8.80;98.08;96709.16;5212455;22;20179;-84
2024/01/04 02:28:46;;;;;;;2.45;0.90;;;;;;;8.80;97.98;96703.97;5240775;22;20206;-83
2024/01/04 02:30:50;;;;;;;1.63;0.40;;;;;;;8.78;98.43;96721.44;5189054;22;20249;-84
2024/01/04 02:32:53;;;;;;;1.90;0.50;;;;;;;8.87;97.10;96736.25;5214619;22;20233;-84
2024/01/04 02:34:56;;;;;;;1.58;0.40;;;;;;;8.91;96.50;96733.28;5213974;22;20635;-85
2024/01/04 02:36:59;;;;;;;2.50;0.50;;;;;;;8.90;97.84;96739.47;5189619;22;20176;-85
2024/01/04 02:39:04;;;;;;;1.85;0.52;;;;;;;9.00;96.24;96740.31;5214832;22;20263;-83
2024/01/04 02:41:09;;;;;;;1.40;0.50;;;;;;;9.03;95.91;96738.28;5186773;22;20182;-83
2024/01/04 02:43:11;;;;;;;1.02;0.38;;;;;;;9.08;95.77;96745.69;5188333;22;20180;-83
2024/01/04 02:45:16;;;;;;;1.00;0.40;;;;;;;9.12;95.57;96750.50;5213081;22;20184;-84
2024/01/04 02:47:20;;;;;;;1.90;0.50;;;;;;;9.16;95.46;96740.69;5241024;22;20159;-85
2024/01/04 02:49:23;;;;;;;2.45;0.60;;;;;;;9.22;93.89;96743.59;5215706;22;20230;-83
2024/01/04 02:51:27;;;;;;;3.17;0.50;;;;;;;9.33;93.84;96729.69;5240362;22;20247;-92
2024/01/04 02:53:30;;;;;;;2.22;0.40;;;;;;;9.43;92.84;96737.38;5215228;22;20693;-95
2024/01/04 02:55:33;;;;;;;2.45;0.60;;;;;;;9.49;92.63;96749.06;5239678;22;20171;-91
2024/01/04 02:57:38;;;;;;;1.95;0.45;;;;;;;9.52;91.75;96741.00;5214630;22;20172;-95
2024/01/04 02:59:41;;;;;;;2.53;0.73;;;;;;;9.54;92.37;96733.88;5215628;22;20179;-91
2024/01/04 03:01:48;;;;;;;1.40;0.40;;;;;;;9.60;91.66;96748.97;5240141;22;20510;-94
2024/01/04 03:03:55;;;;;;;1.90;0.60;;;;;;;9.63;91.26;96738.28;5215126;22;20859;-93
2024/01/04 03:05:58;;;;;;;1.40;0.40;;;;;;;9.62;91.78;96737.47;5213022;22;20169;-92
2024/01/04 03:08:01;;;;;;;1.73;0.60;;;;;;;9.72;91.91;96753.09;5214590;22;20577;-91
2024/01/04 03:10:06;;;;;;;1.30;0.50;;;;;;;9.66;92.02;96745.81;5214347;22;21152;-93
2024/01/04 03:12:09;;;;;;;2.25;0.60;;;;;;;9.57;92.54;96741.41;5213857;22;20611;-93
2024/01/04 03:14:14;;;;;;;4.10;0.50;;;;;;;9.53;92.69;96742.63;5214909;22;20677;-92
2024/01/04 03:16:20;;;;;;;1.00;0.30;;;;;;;9.44;93.00;96736.44;5241256;22;20263;-95
2024/01/04 03:18:23;;;;;;;1.10;0.40;;;;;;;9.37;92.93;96747.50;5214928;22;21100;-95
2024/01/04 03:20:27;;;;;;;1.10;0.40;;;;;;;9.37;92.70;96744.06;5240642;22;20182;-95
2024/01/04 03:22:30;;;;;;;1.30;0.30;;;;;;;9.28;93.53;96734.47;5214057;22;20288;-92
2024/01/04 03:24:34;;;;;;;1.00;0.30;;;;;;;9.22;94.19;96732.38;5214617;22;20176;-94
2024/01/04 03:26:37;;;;;;;1.90;0.30;;;;;;;9.26;93.64;96738.94;5213552;22;20582;-94
2024/01/04 03:28:41;;;;;;;2.83;0.40;;;;;;;9.16;94.43;96736.31;5214093;22;20179;-92
2024/01/04 03:30:45;;;;;;;0.90;0.30;;;;;;;9.10;93.84;96728.22;5214745;22;20183;-95
2024/01/04 03:32:48;;;;;;;1.63;0.30;;;;;;;9.04;94.48;96734.72;5241427;22;20269;-93
2024/01/04 03:34:52;;;;;;;1.13;0.30;;;;;;;9.02;93.43;96739.25;5214102;22;20632;-94
2024/01/04 03:36:55;;;;;;;1.10;0.40;;;;;;;8.99;93.90;96728.25;5240468;22;20188;-92
2024/01/04 03:38:58;;;;;;;1.75;0.40;;;;;;;8.87;93.75;96720.66;5241362;22;20179;-93
2024/01/04 03:41:01;;;;;;;2.33;0.40;;;;;;;8.83;94.94;96722.72;5240807;22;20202;-94
2024/01/04 03:43:05;;;;;;;1.00;0.30;;;;;;;8.78;94.80;96717.06;5239905;22;20172;-95
2024/01/04 03:45:08;;;;;;;1.95;0.40;;;;;;;8.70;95.59;96714.28;5240697;22;20178;-95
2024/01/04 03:47:13;;;;;;;1.00;0.30;;;;;;;8.66;95.58;96715.50;5214952;22;20292;-96
2024/01/04 03:49:16;;;;;;;1.10;0.40;;;;;;;8.73;96.24;96734.81;5213971;22;20242;-91
2024/01/04 03:51:20;;;;;;;1.25;0.35;;;;;;;8.74;96.61;96730.47;5212884;22;20184;-94
2024/01/04 03:53:23;;;;;;;3.38;0.80;;;;;;;8.74;98.27;96720.88;5211568;22;20278;-92
2024/01/04 03:55:26;;;;;;;1.67;0.70;;;;;;;8.74;100.00;96736.47;5214142;22;20643;-92
2024/01/04 03:57:29;;;;;;;1.10;0.40;;;;;;;8.76;99.03;96737.16;5213626;22;20183;-93
2024/01/04 03:59:36;;;;;;;1.80;0.50;;;;;;;8.71;100.00;96751.50;5214754;22;20771;-93
2024/01/04 04:01:44;;;;;;;2.10;0.40;;;;;;;8.68;100.00;96762.97;5214522;22;20199;-83
2024/01/04 04:03:49;;;;;;;1.80;0.60;;;;;;;8.63;100.00;96772.91;5214637;22;20689;-83
2024/01/04 04:05:52;;;;;;;1.55;0.32;;;;;;;8.59;100.00;96775.88;5214102;22;20604;-83
2024/01/04 04:07:56;;;;;;;2.22;0.70;;;;;;;8.62;100.00;96783.44;5240283;22;20198;-83
2024/01/04 04:09:59;;;;;;;1.15;0.50;;;;;;;8.61;100.00;96776.56;5214512;22;20196;-84
2024/01/04 04:12:03;;;;;;;1.63;0.40;;;;;;;8.57;100.00;96795.97;5188435;22;20183;-82
2024/01/04 04:14:07;;;;;;;1.50;0.40;;;;;;;8.59;100.00;96794.88;5214812;22;20202;-83
2024/01/04 04:16:10;;;;;;;1.30;0.50;;;;;;;8.67;100.00;96802.06;5214392;22;20679;-82
2024/01/04 04:18:14;;;;;;;1.90;0.50;;;;;;;8.77;100.00;96808.19;5215142;22;20176;-84
2024/01/04 04:20:19;;;;;;;1.58;0.40;;;;;;;8.87;100.00;96798.66;5214739;22;20180;-84
2024/01/04 04:22:22;;;;;;;1.65;0.40;;;;;;;8.94;100.00;96805.81;5188528;22;20671;-83
2024/01/04 04:24:25;;;;;;;1.42;0.43;;;;;;;9.01;100.00;96807.78;5240721;22;20521;-85
2024/01/04 04:26:28;;;;;;;3.15;0.50;;;;;;;9.04;100.00;96807.53;5214334;22;20266;-84
2024/01/04 04:28:31;;;;;;;2.50;0.57;;;;;;;9.13;100.00;96800.75;5214433;22;20175;-83
2024/01/04 04:30:34;;;;;;;1.40;0.45;;;;;;;9.17;99.12;96810.78;5214764;22;20195;-83
2024/01/04 04:32:37;;;;;;;1.27;0.50;;;;;;;9.24;99.11;96798.09;5188325;22;20582;-83
2024/01/04 04:34:41;;;;;;;1.83;0.80;;;;;;;9.35;98.29;96806.66;5189163;22;20583;-83
2024/01/04 04:36:45;;;;;;;1.70;0.50;;;;;;;9.36;98.42;96804.88;5189460;22;20200;-83
2024/01/04 04:38:51;;;;;;;3.45;1.70;;;;;;;9.44;98.50;96809.28;5189461;22;20177;-83
2024/01/04 04:40:54;;;;;;;1.95;0.60;;;;;;;9.54;97.98;96814.53;5214726;22;20274;-83
2024/01/04 04:42:57;;;;;;;4.43;0.80;;;;;;;9.63;97.02;96811.16;5187050;22;20181;-84
2024/01/04 04:45:01;;;;;;;3.77;0.93;;;;;;;9.70;96.17;96799.28;5188458;22;20603;-83
2024/01/04 04:47:03;;;;;;;3.75;0.80;;;;;;;9.72;95.46;96812.97;5214464;22;20581;-84
2024/01/04 04:49:07;;;;;;;4.13;0.83;;;;;;;9.75;94.75;96805.72;5188958;22;20612;-83
2024/01/04 04:51:12;;;;;;;2.08;0.80;;;;;;;9.84;94.69;96817.97;5214286;22;20613;-83
2024/01/04 04:53:17;;;;;;;4.33;0.77;;;;;;;9.88;93.99;96817.56;5213267;22;20192;-83
2024/01/04 04:55:21;;;;;;;2.70;0.70;;;;;;;9.94;93.57;96819.69;5188533;22;20579;-84
2024/01/04 04:57:24;;;;;;;3.03;1.05;;;;;;;9.93;92.87;96815.41;5213968;22;21113;-83
2024/01/04 04:59:27;;;;;;;2.87;0.70;;;;;;;9.92;92.19;96815.50;5189189;22;20176;-83
2024/01/04 05:01:31;;;;;;;4.40;1.00;;;;;;;9.92;92.83;96831.13;5214568;22;20581;-83
2024/01/04 05:03:34;;;;;;;2.00;0.80;;;;;;;10.00;91.83;96831.34;5212476;22;20176;-84
2024/01/04 05:05:37;;;;;;;3.65;0.98;;;;;;;10.00;91.91;96841.78;5187547;22;20169;-83
2024/01/04 05:07:41;;;;;;;5.68;0.88;;;;;;;10.00;92.00;96836.56;5214174;22;20169;-83
2024/01/04 05:09:45;;;;;;;4.78;0.90;;;;;;;10.03;92.07;96846.72;5239946;22;20540;-83
2024/01/04 05:11:49;;;;;;;2.87;1.00;;;;;;;10.05;91.58;96844.78;5240662;22;20175;-92
2024/01/04 05:13:51;;;;;;;3.40;0.60;;;;;;;10.10;91.22;96842.63;5213013;22;20574;-91
2024/01/04 05:15:54;;;;;;;5.53;1.10;;;;;;;10.11;90.67;96845.09;5212863;22;20614;-89
2024/01/04 05:17:57;;;;;;;3.97;0.80;;;;;;;10.12;90.15;96854.56;5212911;22;20610;-92
2024/01/04 05:20:01;;;;;;;3.85;1.17;;;;;;;10.10;90.80;96851.28;5240768;22;20592;-87
2024/01/04 05:22:04;;;;;;;2.70;0.70;;;;;;;10.13;90.90;96855.38;5212680;22;20386;-91
2024/01/04 05:24:08;;;;;;;2.17;0.70;;;;;;;10.15;91.09;96858.66;5212984;22;20692;-91
2024/01/04 05:26:21;;;;;;;4.00;0.70;;;;;;;10.15;91.60;96864.72;5212921;22;20566;-93
2024/01/04 05:28:24;;;;;;;4.77;1.30;;;;;;;10.15;92.37;96858.66;5213082;22;20164;-94
2024/01/04 05:30:27;;;;;;;7.93;0.73;;;;;;;10.10;92.10;96856.47;5240729;22;20610;-92
2024/01/04 05:32:31;;;;;;;3.00;0.80;;;;;;;10.12;91.42;96859.78;5239182;22;20630;-92
2024/01/04 05:34:36;;;;;;;2.37;0.80;;;;;;;10.12;91.27;96867.59;5187497;22;20649;-94
2024/01/04 05:36:39;;;;;;;4.80;1.10;;;;;;;10.12;91.59;96869.38;5213083;22;20608;-93
2024/01/04 05:38:42;;;;;;;6.13;0.80;;;;;;;10.16;91.03;96876.75;5213507;22;20966;-92
2024/01/04 05:40:45;;;;;;;2.55;0.65;;;;;;;10.16;91.21;96874.16;5187780;22;20652;-93
2024/01/04 05:42:50;;;;;;;3.50;0.70;;;;;;;10.13;92.70;96884.88;5211753;22;20176;-93
2024/01/04 05:44:53;;;;;;;2.53;0.77;;;;;;;10.16;92.44;96889.78;5187274;22;20564;-93
2024/01/04 05:46:57;;;;;;;4.00;0.70;;;;;;;10.16;92.13;96897.59;5214129;22;20580;-91
2024/01/04 05:48:59;;;;;;;1.60;0.60;;;;;;;10.15;92.45;96892.53;5212782;22;20666;-94
2024/01/04 05:51:03;;;;;;;3.20;1.10;;;;;;;10.17;92.18;96907.06;5211964;22;20607;-93
2024/01/04 05:53:07;;;;;;;2.63;0.70;;;;;;;10.16;92.53;96904.59;5211427;22;20943;-93
2024/01/04 05:55:10;;;;;;;4.50;0.70;;;;;;;10.12;92.82;96914.47;5213137;22;20673;-93
2024/01/04 05:57:15;;;;;;;2.03;0.67;;;;;;;10.05;92.59;96908.13;5213441;22;20550;-92
2024/01/04 05:59:21;;;;;;;3.50;0.80;;;;;;;9.98;93.88;96917.44;5240548;22;21147;-94
2024/01/04 06:01:25;;;;;;;2.28;0.60;;;;;;;9.99;93.03;96911.25;5211852;22;20602;-93
2024/01/04 06:03:27;;;;;;;1.88;0.60;;;;;;;10.01;94.17;96925.00;5186099;22;20181;-92
2024/01/04 06:05:30;;;;;;;2.13;0.60;;;;;;;9.93;94.15;96927.38;5213352;22;20176;-93
2024/01/04 06:07:34;;;;;;;4.57;0.70;;;;;;;9.91;94.32;96934.47;5240641;22;20577;-91
2024/01/04 06:09:37;;;;;;;3.13;1.00;;;;;;;9.91;94.50;96934.47;5212780;22;20696;-92
2024/01/04 06:11:40;;;;;;;3.50;0.80;;;;;;;9.92;94.91;96941.34;5187135;22;21157;-92
2024/01/04 06:13:43;;;;;;;3.10;0.80;;;;;;;9.90;94.70;96952.84;5185810;22;20594;-92
2024/01/04 06:15:48;;;;;;;2.33;0.60;;;;;;;9.90;95.89;96945.03;5212085;22;20613;-93
2024/01/04 06:17:50;;;;;;;4.50;1.83;;;;;;;9.88;94.34;96952.97;5213112;22;20941;-93
2024/01/04 06:19:54;;;;;;;4.00;0.90;;;;;;;9.85;95.25;96958.44;5240957;22;20182;-92
2024/01/04 06:21:58;;;;;;;2.20;0.60;;;;;;;9.86;94.34;96965.31;5212733;22;20619;-91
2024/01/04 06:24:01;;;;;;;5.90;1.03;;;;;;;9.90;94.08;96965.84;5186402;22;20582;-88
2024/01/04 06:26:04;;;;;;;3.40;0.80;;;;;;;9.92;94.15;96969.16;5187335;22;20666;-93
2024/01/04 06:28:08;;;;;;;2.53;0.80;;;;;;;9.90;93.76;96973.69;5212473;22;20586;-91
2024/01/04 06:30:11;;;;;;;3.63;0.67;;;;;;;9.91;93.51;96970.94;5185571;22;21094;-91
2024/01/04 06:32:16;;;;;;;5.43;1.00;;;;;;;9.89;93.66;96975.47;5211324;22;21018;-92
2024/01/04 06:34:20;;;;;;;6.70;1.40;;;;;;;9.91;92.62;96976.16;5186491;22;20582;-93
2024/01/04 06:36:24;;;;;;;2.95;0.77;;;;;;;9.92;93.30;96980.41;5211882;22;20574;-93
2024/01/04 06:38:27;;;;;;;3.87;0.93;;;;;;;9.96;92.08;96987.03;5212912;22;20234;-90
2024/01/04 06:40:30;;;;;;;4.10;0.83;;;;;;;9.89;93.34;96985.03;5239278;22;20582;-91
2024/01/04 06:42:36;;;;;;;3.55;0.75;;;;;;;9.90;93.18;96992.72;5239421;22;20631;-90
2024/01/04 06:44:40;;;;;;;3.10;0.80;;;;;;;9.91;93.97;97001.38;5211929;22;20176;-94
2024/01/04 06:46:49;;;;;;;3.97;1.63;;;;;;;9.92;93.58;96996.03;5238558;22;20560;-94
2024/01/04 06:48:53;;;;;;;3.53;0.93;;;;;;;9.89;93.38;97005.88;5212952;22;20586;-90
2024/01/04 06:50:56;;;;;;;2.63;0.70;;;;;;;9.86;93.21;97012.16;5212443;22;20672;-91
2024/01/04 06:52:59;;;;;;;4.97;1.15;;;;;;;9.84;93.07;97012.44;5212518;22;20555;-91
2024/01/04 06:55:03;;;;;;;2.90;0.97;;;;;;;9.86;93.59;97027.78;5238582;22;20651;-92
2024/01/04 06:57:07;;;;;;;3.60;1.47;;;;;;;9.86;93.80;97024.34;5187118;22;21015;-89
2024/01/04 06:59:10;;;;;;;1.98;0.70;;;;;;;9.83;93.94;97018.56;5186614;22;21196;-90
2024/01/04 07:01:13;;;;;;;3.83;0.70;;;;;;;9.83;94.23;97026.38;5186955;22;20180;-94
2024/01/04 07:03:19;;;;;;;3.50;0.80;;;;;;;9.88;93.41;97023.28;5238078;22;20615;-95
2024/01/04 07:05:23;;;;;;;2.92;0.93;;;;;;;9.86;93.83;97033.00;5240065;22;20570;-93
2024/01/04 07:07:26;;;;;;;3.13;0.93;;;;;;;9.86;93.52;97035.59;5213324;22;20269;-90
2024/01/04 07:09:29;;;;;;;4.57;1.10;;;;;;;9.89;94.10;97037.13;5237165;22;20755;-92
2024/01/04 07:11:33;;;;;;;4.40;1.00;;;;;;;9.78;93.76;97036.38;5211871;22;20610;-90
2024/01/04 07:13:35;;;;;;;3.20;0.70;;;;;;;9.82;93.58;97048.16;5211804;22;20585;-91
2024/01/04 07:15:39;;;;;;;2.27;1.00;;;;;;;9.77;93.06;97051.13;5239688;22;20672;-92
2024/01/04 07:17:41;;;;;;;3.40;0.90;;;;;;;9.83;93.34;97061.06;5213523;22;20584;-93
2024/01/04 07:19:44;;;;;;;2.00;0.77;;;;;;;9.87;93.32;97068.47;5213371;22;20555;-91
2024/01/04 07:21:49;;;;;;;2.37;0.67;;;;;;;9.89;93.43;97069.22;5214241;22;20267;-90
2024/01/04 07:23:52;;;;;;;6.33;1.33;;;;;;;9.98;92.93;97076.31;5238941;22;20624;-93
2024/01/04 07:25:56;;;;;;;3.90;0.90;;;;;;;9.90;93.38;97081.25;5213435;22;20578;-93
2024/01/04 07:27:59;;;;;;;6.15;1.80;;;;;;;9.92;92.81;97076.78;5240864;22;20635;-91
2024/01/04 07:30:02;;;;;;;1.77;0.70;;;;;;;9.94;92.68;97082.69;5241271;22;20237;-91
2024/01/04 07:32:07;;;;;;;1.93;0.73;;;;;;;10.00;92.74;97082.19;5240128;22;20718;-82
2024/01/04 07:34:10;;;;;;;3.67;1.10;;;;;;;10.03;91.64;97081.13;5212993;22;21192;-82
2024/01/04 07:36:14;;;;;;;3.28;0.98;;;;;;;9.98;91.88;97088.47;5239163;22;20934;-83
2024/01/04 07:38:19;;;;;;;4.93;1.10;;;;;;;9.99;91.98;97084.94;5188745;22;20176;-83
2024/01/04 07:40:23;;;;;;;3.20;0.87;;;;;;;9.94;92.06;97082.69;5240379;22;20653;-82
2024/01/04 07:42:26;;;;;;;4.15;0.75;;;;;;;9.93;91.57;97086.25;5213524;22;20598;-83
2024/01/04 07:44:30;;;;;;;1.52;0.60;;;;;;;9.92;90.80;97084.59;5238982;22;20186;-82
2024/01/04 07:46:34;;;;;;;2.58;0.70;;;;;;;9.90;92.36;97090.84;5214339;22;20167;-84
2024/01/04 07:48:37;;;;;;;2.10;0.70;;;;;;;9.93;91.42;97088.00;5189024;22;20195;-82
2024/01/04 07:50:39;;;;;;;2.53;0.80;;;;;;;9.85;91.66;97087.81;5242113;22;20228;-82
2024/01/04 07:52:43;;;;;;;1.98;0.70;;;;;;;9.88;91.86;97106.59;5241074;22;20205;-83
2024/01/04 07:54:48;;;;;;;1.30;0.60;;;;;;;9.82;91.87;97088.06;5214051;22;20560;-83
2024/01/04 07:56:54;;;;;;;3.63;0.70;;;;;;;9.84;91.72;97094.78;5214275;22;20919;-82
2024/01/04 07:58:57;;;;;;;2.15;0.63;;;;;;;9.91;91.52;97114.16;5214554;22;21054;-82
2024/01/04 08:01:00;;;;;;;1.70;0.53;;;;;;;9.91;91.30;97089.91;5242305;22;20232;-83
2024/01/04 08:03:06;;;;;;;1.80;0.60;;;;;;;9.84;92.10;97099.97;5214006;22;20968;-82
2024/01/04 08:05:10;;;;;;;3.22;0.77;;;;;;;9.85;91.71;97106.84;5213985;22;21026;-83
2024/01/04 08:07:14;;;;;;;2.70;0.80;;;;;;;9.87;91.95;97109.34;5240121;22;20171;-83
2024/01/04 08:09:17;;;;;;;2.63;0.70;;;;;;;9.76;91.56;97106.78;5188457;22;20177;-82
2024/01/04 08:11:22;;;;;;;3.22;0.70;;;;;;;9.81;91.59;97122.03;5239893;22;20577;-83
2024/01/04 08:13:25;;;;;;;1.63;0.63;;;;;;;9.82;90.90;97113.25;5188249;22;20177;-83
2024/01/04 08:15:29;;;;;;;2.83;0.70;;;;;;;9.80;91.86;97120.38;5212380;22;20179;-82
2024/01/04 08:17:31;;;;;;;2.72;0.70;;;;;;;9.84;91.00;97119.19;5187895;22;20575;-82
2024/01/04 08:19:35;;;;;;;3.28;0.85;;;;;;;9.84;91.01;97120.81;5214556;22;20172;-82
2024/01/04 08:21:38;;;;;;;5.00;1.00;;;;;;;9.81;90.74;97112.44;5188788;22;20205;-83
2024/01/04 08:23:42;;;;;;;3.10;1.00;;;;;;;9.84;90.91;97122.59;5188240;22;20176;-82
2024/01/04 08:25:45;;;;;;;3.80;1.40;;;;;;;9.87;89.94;97125.78;5212719;22;20173;-82
2024/01/04 08:27:50;;;;;;;3.00;0.82;;;;;;;9.92;89.60;97118.44;5188273;22;20705;-82
2024/01/04 08:29:53;;;;;;;2.80;0.93;;;;;;;9.98;88.64;97133.59;5213580;22;20293;-82
2024/01/04 08:31:57;;;;;;;4.05;1.33;;;;;;;10.06;88.65;97118.16;5212772;22;20278;-83
2024/01/04 08:33:59;;;;;;;4.20;1.10;;;;;;;10.12;88.62;97133.31;5187181;22;20172;-83
2024/01/04 08:36:02;;;;;;;3.67;1.30;;;;;;;10.16;88.19;97124.25;5214161;22;20604;-83
2024/01/04 08:38:08;;;;;;;3.97;1.23;;;;;;;10.23;88.53;97135.84;5187451;22;20583;-83
2024/01/04 08:40:12;;;;;;;2.60;0.80;;;;;;;10.30;88.40;97136.16;5212700;22;20632;-83
2024/01/04 08:42:14;;;;;;;4.70;2.07;;;;;;;10.36;87.86;97134.72;5211882;22;20581;-84
2024/01/04 08:44:26;;;;;;;4.20;1.10;;;;;;;10.46;86.80;97134.75;5186977;22;20613;-82
2024/01/04 08:46:30;;;;;;;3.47;1.70;;;;;;;10.50;87.39;97133.56;5214673;22;20573;-86
2024/01/04 08:48:32;;;;;;;4.68;1.00;;;;;;;10.51;87.32;97125.63;5213844;22;20574;-85
2024/01/04 08:50:36;;;;;;;4.03;1.10;;;;;;;10.63;86.36;97136.78;5214041;22;20172;-83
2024/01/04 08:52:39;;;;;;;6.33;1.20;;;;;;;10.61;85.43;97139.53;5239299;22;20811;-84
2024/01/04 08:54:43;;;;;;;4.10;1.10;;;;;;;10.73;85.73;97133.28;5213195;22;21063;-84
2024/01/04 08:56:46;;;;;;;3.60;1.10;;;;;;;10.88;85.23;97140.66;5240391;22;20237;-85
2024/01/04 08:58:49;;;;;;;3.97;1.20;;;;;;;10.93;82.88;97143.69;5214715;22;20625;-83
2024/01/04 09:00:54;;;;;;;7.83;1.37;;;;;;;10.85;83.38;97143.53;5213535;22;20597;-82
2024/01/04 09:02:57;;;;;;;3.73;1.10;;;;;;;10.82;82.11;97135.97;5184581;22;21264;-85
2024/01/04 09:05:04;;;;;;;3.23;1.43;;;;;;;10.84;83.08;97139.25;5241138;22;20578;-84
2024/01/04 09:07:08;;;;;;;3.77;1.20;;;;;;;10.84;82.36;97139.25;5240193;22;20619;-83
2024/01/04 09:09:11;;;;;;;3.57;0.80;;;;;;;10.94;83.22;97147.13;5212009;22;20576;-87
2024/01/04 09:11:15;;;;;;;5.20;1.30;;;;;;;10.94;82.80;97155.75;5184728;22;20646;-87
2024/01/04 09:13:18;;;;;;;5.43;1.33;;;;;;;10.87;81.29;97144.22;5211037;22;20606;-85
2024/01/04 09:15:21;;;;;;;3.43;1.00;;;;;;;10.86;82.07;97146.94;5185551;22;20608;-85
2024/01/04 09:17:26;;;;;;;4.80;1.10;;;;;;;10.83;81.68;97153.25;5212285;22;20581;-84
2024/01/04 09:19:28;;;;;;;5.10;1.40;;;;;;;10.88;82.43;97145.03;5211897;22;20606;-87
2024/01/04 09:21:32;;;;;;;3.87;1.40;;;;;;;10.81;81.51;97155.16;5238626;22;20639;-88
2024/01/04 09:23:36;;;;;;;6.97;1.13;;;;;;;10.82;81.06;97156.81;5210481;22;20583;-92
2024/01/04 09:25:39;;;;;;;4.93;1.40;;;;;;;10.82;81.51;97146.41;5188604;22;20930;-94
2024/01/04 09:27:42;;;;;;;4.07;1.10;;;;;;;10.79;81.35;97150.19;5210947;22;20586;-92
2024/01/04 09:29:47;;;;;;;4.43;1.00;;;;;;;10.81;82.04;97170.81;5186559;22;21218;-93
2024/01/04 09:31:51;;;;;;;5.50;1.53;;;;;;;10.90;81.90;97167.44;5212701;22;21176;-92
2024/01/04 09:33:58;;;;;;;2.20;0.80;;;;;;;10.93;80.97;97174.16;5212355;22;20608;-90
2024/01/04 09:36:02;;;;;;;5.00;1.77;;;;;;;10.96;80.65;97182.56;5238398;22;20616;-90
2024/01/04 09:38:06;;;;;;;6.90;1.43;;;;;;;10.96;79.53;97181.72;5211249;22;20928;-88
2024/01/04 09:40:12;;;;;;;4.60;1.10;;;;;;;10.99;79.71;97182.31;5247290;22;20917;-92
2024/01/04 09:42:15;;;;;;;3.10;1.17;;;;;;;10.95;79.15;97182.69;5212662;22;20570;-94
2024/01/04 09:44:19;;;;;;;3.70;1.00;;;;;;;10.99;79.02;97182.31;5213872;22;20741;-91
2024/01/04 09:46:24;;;;;;;5.20;1.00;;;;;;;10.90;80.56;97183.09;5212989;22;20582;-88